sensor_id;sensor_type;location;lat;lon;timestamp;P1;durP1;ratioP1;P2;durP2;ratioP2
73150;SDS011;61354;50.758;6.106;2024-01-07T00:00:37;14.57;;;6.47;;
73150;SDS011;61354;50.758;6.106;2024-01-07T00:03:22;15.57;;;7.25;;
73150;SDS011;61354;50.758;6.106;2024-01-07T00:06:06;15.48;;;7.22;;
73150;SDS011;61354;50.758;6.106;2024-01-07T00:08:49;17.52;;;7.88;;
73150;SDS011;61354;50.758;6.106;2024-01-07T00:11:33;15.55;;;7.10;;
73150;SDS011;61354;50.758;6.106;2024-01-07T00:14:17;15.10;;;7.00;;
73150;SDS011;61354;50.758;6.106;2024-01-07T00:17:01;17.38;;;7.75;;
73150;SDS011;61354;50.758;6.106;2024-01-07T00:19:45;14.02;;;6.95;;
73150;SDS011;61354;50.758;6.106;2024-01-07T00:22:29;16.13;;;7.78;;
73150;SDS011;61354;50.758;6.106;2024-01-07T00:25:13;18.25;;;8.80;;
73150;SDS011;61354;50.758;6.106;2024-01-07T00:27:57;19.90;;;8.80;;
73150;SDS011;61354;50.758;6.106;2024-01-07T00:30:41;16.13;;;8.15;;
73150;SDS011;61354;50.758;6.106;2024-01-07T00:33:25;13.95;;;7.45;;
73150;SDS011;61354;50.758;6.106;2024-01-07T00:36:09;15.02;;;7.60;;
73150;SDS011;61354;50.758;6.106;2024-01-07T00:38:53;13.90;;;7.03;;
73150;SDS011;61354;50.758;6.106;2024-01-07T00:41:37;18.20;;;8.20;;
73150;SDS011;61354;50.758;6.106;2024-01-07T00:44:20;15.32;;;7.18;;
73150;SDS011;61354;50.758;6.106;2024-01-07T00:47:05;15.15;;;6.75;;
73150;SDS011;61354;50.758;6.106;2024-01-07T00:49:48;13.95;;;6.80;;
73150;SDS011;61354;50.758;6.106;2024-01-07T00:52:32;13.57;;;6.35;;
73150;SDS011;61354;50.758;6.106;2024-01-07T00:55:16;13.07;;;6.72;;
73150;SDS011;61354;50.758;6.106;2024-01-07T00:58:01;15.23;;;6.32;;
73150;SDS011;61354;50.758;6.106;2024-01-07T01:00:45;14.75;;;7.97;;
73150;SDS011;61354;50.758;6.106;2024-01-07T01:03:29;15.18;;;6.78;;
73150;SDS011;61354;50.758;6.106;2024-01-07T01:06:13;13.88;;;7.40;;
73150;SDS011;61354;50.758;6.106;2024-01-07T01:08:57;13.40;;;6.68;;
73150;SDS011;61354;50.758;6.106;2024-01-07T01:11:41;15.10;;;6.80;;
73150;SDS011;61354;50.758;6.106;2024-01-07T01:14:25;13.93;;;7.30;;
73150;SDS011;61354;50.758;6.106;2024-01-07T01:17:09;12.68;;;6.78;;
73150;SDS011;61354;50.758;6.106;2024-01-07T01:19:53;16.17;;;7.47;;
73150;SDS011;61354;50.758;6.106;2024-01-07T01:22:37;13.55;;;6.85;;
73150;SDS011;61354;50.758;6.106;2024-01-07T01:25:21;16.20;;;7.43;;
73150;SDS011;61354;50.758;6.106;2024-01-07T01:28:05;15.25;;;6.70;;
73150;SDS011;61354;50.758;6.106;2024-01-07T01:30:49;15.52;;;7.40;;
73150;SDS011;61354;50.758;6.106;2024-01-07T01:33:33;15.57;;;7.10;;
73150;SDS011;61354;50.758;6.106;2024-01-07T01:36:17;14.40;;;6.47;;
73150;SDS011;61354;50.758;6.106;2024-01-07T01:39:01;12.07;;;6.07;;
73150;SDS011;61354;50.758;6.106;2024-01-07T01:41:45;16.10;;;6.93;;
73150;SDS011;61354;50.758;6.106;2024-01-07T01:44:29;14.18;;;6.30;;
73150;SDS011;61354;50.758;6.106;2024-01-07T01:49:59;16.10;;;7.90;;
73150;SDS011;61354;50.758;6.106;2024-01-07T01:52:47;15.15;;;7.07;;
73150;SDS011;61354;50.758;6.106;2024-01-07T01:55:32;17.23;;;7.60;;
73150;SDS011;61354;50.758;6.106;2024-01-07T01:58:17;18.75;;;8.32;;
73150;SDS011;61354;50.758;6.106;2024-01-07T02:03:47;12.43;;;6.70;;
73150;SDS011;61354;50.758;6.106;2024-01-07T02:06:31;18.98;;;7.63;;
73150;SDS011;61354;50.758;6.106;2024-01-07T02:09:16;17.60;;;8.18;;
73150;SDS011;61354;50.758;6.106;2024-01-07T02:12:03;20.10;;;8.23;;
73150;SDS011;61354;50.758;6.106;2024-01-07T02:14:48;23.23;;;10.52;;
73150;SDS011;61354;50.758;6.106;2024-01-07T02:17:32;25.10;;;12.00;;
73150;SDS011;61354;50.758;6.106;2024-01-07T02:20:16;26.23;;;9.85;;
73150;SDS011;61354;50.758;6.106;2024-01-07T02:23:00;26.33;;;10.70;;
73150;SDS011;61354;50.758;6.106;2024-01-07T02:25:44;29.30;;;11.25;;
73150;SDS011;61354;50.758;6.106;2024-01-07T02:28:29;24.35;;;10.65;;
73150;SDS011;61354;50.758;6.106;2024-01-07T02:31:13;25.67;;;11.13;;
73150;SDS011;61354;50.758;6.106;2024-01-07T02:33:57;22.67;;;9.85;;
73150;SDS011;61354;50.758;6.106;2024-01-07T02:36:41;24.40;;;10.73;;
73150;SDS011;61354;50.758;6.106;2024-01-07T02:39:25;26.13;;;10.77;;
73150;SDS011;61354;50.758;6.106;2024-01-07T02:42:09;27.25;;;10.18;;
73150;SDS011;61354;50.758;6.106;2024-01-07T02:44:54;25.08;;;10.40;;
73150;SDS011;61354;50.758;6.106;2024-01-07T02:47:37;18.17;;;9.15;;
73150;SDS011;61354;50.758;6.106;2024-01-07T02:50:21;21.05;;;9.02;;
73150;SDS011;61354;50.758;6.106;2024-01-07T02:53:05;16.15;;;7.43;;
73150;SDS011;61354;50.758;6.106;2024-01-07T02:55:51;18.67;;;8.50;;
73150;SDS011;61354;50.758;6.106;2024-01-07T02:58:35;20.08;;;8.15;;
73150;SDS011;61354;50.758;6.106;2024-01-07T03:01:21;16.80;;;7.18;;
73150;SDS011;61354;50.758;6.106;2024-01-07T03:04:07;19.92;;;8.75;;
73150;SDS011;61354;50.758;6.106;2024-01-07T03:06:53;19.98;;;8.43;;
73150;SDS011;61354;50.758;6.106;2024-01-07T03:09:37;19.08;;;8.07;;
73150;SDS011;61354;50.758;6.106;2024-01-07T03:12:21;16.67;;;7.75;;
73150;SDS011;61354;50.758;6.106;2024-01-07T03:15:05;16.25;;;7.00;;
73150;SDS011;61354;50.758;6.106;2024-01-07T03:17:52;16.38;;;7.05;;
73150;SDS011;61354;50.758;6.106;2024-01-07T03:20:36;15.43;;;7.43;;
73150;SDS011;61354;50.758;6.106;2024-01-07T03:23:20;14.40;;;7.15;;
73150;SDS011;61354;50.758;6.106;2024-01-07T03:26:04;15.27;;;6.93;;
73150;SDS011;61354;50.758;6.106;2024-01-07T03:28:48;13.85;;;6.28;;
73150;SDS011;61354;50.758;6.106;2024-01-07T03:31:32;14.75;;;7.00;;
73150;SDS011;61354;50.758;6.106;2024-01-07T03:34:16;15.32;;;6.68;;
73150;SDS011;61354;50.758;6.106;2024-01-07T03:37:00;14.93;;;6.88;;
73150;SDS011;61354;50.758;6.106;2024-01-07T03:39:44;16.73;;;7.05;;
73150;SDS011;61354;50.758;6.106;2024-01-07T03:42:29;13.75;;;5.63;;
73150;SDS011;61354;50.758;6.106;2024-01-07T03:45:13;12.05;;;6.03;;
73150;SDS011;61354;50.758;6.106;2024-01-07T03:47:57;13.68;;;6.15;;
73150;SDS011;61354;50.758;6.106;2024-01-07T03:50:44;13.80;;;5.72;;
73150;SDS011;61354;50.758;6.106;2024-01-07T03:53:28;10.57;;;4.75;;
73150;SDS011;61354;50.758;6.106;2024-01-07T03:56:12;14.10;;;5.95;;
73150;SDS011;61354;50.758;6.106;2024-01-07T03:58:56;10.60;;;5.30;;
73150;SDS011;61354;50.758;6.106;2024-01-07T04:01:40;12.18;;;5.70;;
73150;SDS011;61354;50.758;6.106;2024-01-07T04:04:24;13.18;;;5.85;;
73150;SDS011;61354;50.758;6.106;2024-01-07T04:07:08;11.65;;;5.28;;
73150;SDS011;61354;50.758;6.106;2024-01-07T04:09:51;12.48;;;5.63;;
73150;SDS011;61354;50.758;6.106;2024-01-07T04:12:36;12.68;;;5.43;;
73150;SDS011;61354;50.758;6.106;2024-01-07T04:15:20;9.73;;;4.72;;
73150;SDS011;61354;50.758;6.106;2024-01-07T04:18:04;10.98;;;5.30;;
73150;SDS011;61354;50.758;6.106;2024-01-07T04:20:48;10.70;;;4.75;;
73150;SDS011;61354;50.758;6.106;2024-01-07T04:23:32;10.85;;;4.43;;
73150;SDS011;61354;50.758;6.106;2024-01-07T04:26:16;8.55;;;4.32;;
73150;SDS011;61354;50.758;6.106;2024-01-07T04:29:00;12.15;;;5.63;;
73150;SDS011;61354;50.758;6.106;2024-01-07T04:31:44;8.82;;;4.88;;
73150;SDS011;61354;50.758;6.106;2024-01-07T04:34:28;9.65;;;4.07;;
73150;SDS011;61354;50.758;6.106;2024-01-07T04:37:12;12.07;;;5.07;;
73150;SDS011;61354;50.758;6.106;2024-01-07T04:39:56;11.43;;;4.93;;
73150;SDS011;61354;50.758;6.106;2024-01-07T04:42:40;14.13;;;5.50;;
73150;SDS011;61354;50.758;6.106;2024-01-07T04:45:24;11.38;;;5.85;;
73150;SDS011;61354;50.758;6.106;2024-01-07T04:48:08;9.50;;;5.32;;
73150;SDS011;61354;50.758;6.106;2024-01-07T04:50:52;12.60;;;5.68;;
73150;SDS011;61354;50.758;6.106;2024-01-07T04:53:36;15.70;;;7.03;;
73150;SDS011;61354;50.758;6.106;2024-01-07T04:56:20;14.05;;;6.57;;
73150;SDS011;61354;50.758;6.106;2024-01-07T04:59:04;14.23;;;6.05;;
73150;SDS011;61354;50.758;6.106;2024-01-07T05:01:48;11.57;;;5.90;;
73150;SDS011;61354;50.758;6.106;2024-01-07T05:04:32;15.55;;;6.72;;
73150;SDS011;61354;50.758;6.106;2024-01-07T05:07:16;12.30;;;5.38;;
73150;SDS011;61354;50.758;6.106;2024-01-07T05:10:00;11.77;;;5.75;;
73150;SDS011;61354;50.758;6.106;2024-01-07T05:12:44;10.02;;;4.38;;
73150;SDS011;61354;50.758;6.106;2024-01-07T05:15:28;9.02;;;3.92;;
73150;SDS011;61354;50.758;6.106;2024-01-07T05:18:12;9.77;;;4.45;;
73150;SDS011;61354;50.758;6.106;2024-01-07T05:20:56;11.05;;;4.97;;
73150;SDS011;61354;50.758;6.106;2024-01-07T05:23:40;11.73;;;5.57;;
73150;SDS011;61354;50.758;6.106;2024-01-07T05:26:23;10.23;;;5.45;;
73150;SDS011;61354;50.758;6.106;2024-01-07T05:29:07;14.25;;;6.28;;
73150;SDS011;61354;50.758;6.106;2024-01-07T05:31:51;13.90;;;7.22;;
73150;SDS011;61354;50.758;6.106;2024-01-07T05:34:35;14.02;;;6.50;;
73150;SDS011;61354;50.758;6.106;2024-01-07T05:37:19;20.77;;;8.13;;
73150;SDS011;61354;50.758;6.106;2024-01-07T05:40:03;15.77;;;7.63;;
73150;SDS011;61354;50.758;6.106;2024-01-07T05:42:49;15.68;;;8.15;;
73150;SDS011;61354;50.758;6.106;2024-01-07T05:45:33;16.75;;;8.43;;
73150;SDS011;61354;50.758;6.106;2024-01-07T05:48:18;18.73;;;9.20;;
73150;SDS011;61354;50.758;6.106;2024-01-07T05:51:05;22.67;;;9.95;;
73150;SDS011;61354;50.758;6.106;2024-01-07T05:53:49;18.38;;;9.02;;
73150;SDS011;61354;50.758;6.106;2024-01-07T05:56:37;18.92;;;10.20;;
73150;SDS011;61354;50.758;6.106;2024-01-07T05:59:22;21.45;;;10.13;;
73150;SDS011;61354;50.758;6.106;2024-01-07T06:02:06;20.38;;;9.63;;
73150;SDS011;61354;50.758;6.106;2024-01-07T06:04:50;20.67;;;9.70;;
73150;SDS011;61354;50.758;6.106;2024-01-07T06:07:34;21.23;;;9.10;;
73150;SDS011;61354;50.758;6.106;2024-01-07T06:10:18;23.08;;;11.02;;
73150;SDS011;61354;50.758;6.106;2024-01-07T06:13:02;21.80;;;9.80;;
73150;SDS011;61354;50.758;6.106;2024-01-07T06:15:46;23.48;;;9.15;;
73150;SDS011;61354;50.758;6.106;2024-01-07T06:18:30;20.10;;;8.57;;
73150;SDS011;61354;50.758;6.106;2024-01-07T06:21:14;23.52;;;9.98;;
73150;SDS011;61354;50.758;6.106;2024-01-07T06:23:58;20.85;;;9.82;;
73150;SDS011;61354;50.758;6.106;2024-01-07T06:26:42;19.50;;;8.70;;
73150;SDS011;61354;50.758;6.106;2024-01-07T06:29:26;22.15;;;9.85;;
73150;SDS011;61354;50.758;6.106;2024-01-07T06:32:10;23.88;;;9.90;;
73150;SDS011;61354;50.758;6.106;2024-01-07T06:34:54;25.75;;;9.02;;
73150;SDS011;61354;50.758;6.106;2024-01-07T06:37:38;20.95;;;8.90;;
73150;SDS011;61354;50.758;6.106;2024-01-07T06:40:22;23.02;;;10.30;;
73150;SDS011;61354;50.758;6.106;2024-01-07T06:43:06;24.15;;;10.10;;
73150;SDS011;61354;50.758;6.106;2024-01-07T06:45:50;23.67;;;11.88;;
73150;SDS011;61354;50.758;6.106;2024-01-07T06:48:34;19.85;;;9.43;;
73150;SDS011;61354;50.758;6.106;2024-01-07T06:51:18;19.63;;;9.05;;
73150;SDS011;61354;50.758;6.106;2024-01-07T06:54:02;21.27;;;10.18;;
73150;SDS011;61354;50.758;6.106;2024-01-07T06:56:46;23.13;;;9.13;;
73150;SDS011;61354;50.758;6.106;2024-01-07T06:59:29;12.80;;;7.43;;
73150;SDS011;61354;50.758;6.106;2024-01-07T07:02:13;17.55;;;9.40;;
73150;SDS011;61354;50.758;6.106;2024-01-07T07:04:57;20.77;;;9.18;;
73150;SDS011;61354;50.758;6.106;2024-01-07T07:07:41;20.02;;;10.10;;
73150;SDS011;61354;50.758;6.106;2024-01-07T07:10:26;21.85;;;10.23;;
73150;SDS011;61354;50.758;6.106;2024-01-07T07:13:10;20.25;;;9.88;;
73150;SDS011;61354;50.758;6.106;2024-01-07T07:15:55;20.85;;;9.93;;
73150;SDS011;61354;50.758;6.106;2024-01-07T07:18:39;17.70;;;9.52;;
73150;SDS011;61354;50.758;6.106;2024-01-07T07:21:23;15.68;;;8.52;;
73150;SDS011;61354;50.758;6.106;2024-01-07T07:24:06;20.20;;;10.73;;
73150;SDS011;61354;50.758;6.106;2024-01-07T07:26:50;18.13;;;9.10;;
73150;SDS011;61354;50.758;6.106;2024-01-07T07:29:35;16.70;;;9.38;;
73150;SDS011;61354;50.758;6.106;2024-01-07T07:32:19;18.08;;;9.13;;
73150;SDS011;61354;50.758;6.106;2024-01-07T07:35:03;18.25;;;8.23;;
73150;SDS011;61354;50.758;6.106;2024-01-07T07:37:48;16.48;;;9.00;;
73150;SDS011;61354;50.758;6.106;2024-01-07T07:40:32;14.15;;;7.80;;
73150;SDS011;61354;50.758;6.106;2024-01-07T07:43:15;13.13;;;7.78;;
73150;SDS011;61354;50.758;6.106;2024-01-07T07:45:59;15.10;;;8.23;;
73150;SDS011;61354;50.758;6.106;2024-01-07T07:48:46;13.77;;;7.82;;
73150;SDS011;61354;50.758;6.106;2024-01-07T07:51:30;13.82;;;7.28;;
73150;SDS011;61354;50.758;6.106;2024-01-07T07:54:14;13.68;;;7.85;;
73150;SDS011;61354;50.758;6.106;2024-01-07T07:56:58;15.23;;;8.48;;
73150;SDS011;61354;50.758;6.106;2024-01-07T07:59:42;12.65;;;7.32;;
73150;SDS011;61354;50.758;6.106;2024-01-07T08:02:26;15.88;;;9.82;;
73150;SDS011;61354;50.758;6.106;2024-01-07T08:05:10;18.05;;;9.52;;
73150;SDS011;61354;50.758;6.106;2024-01-07T08:07:54;17.20;;;9.25;;
73150;SDS011;61354;50.758;6.106;2024-01-07T08:10:40;16.80;;;8.73;;
73150;SDS011;61354;50.758;6.106;2024-01-07T08:13:23;15.10;;;7.57;;
73150;SDS011;61354;50.758;6.106;2024-01-07T08:16:07;16.88;;;8.10;;
73150;SDS011;61354;50.758;6.106;2024-01-07T08:18:54;17.75;;;8.35;;
73150;SDS011;61354;50.758;6.106;2024-01-07T08:21:40;14.57;;;7.22;;
73150;SDS011;61354;50.758;6.106;2024-01-07T08:24:24;13.35;;;7.72;;
73150;SDS011;61354;50.758;6.106;2024-01-07T08:27:08;12.10;;;6.95;;
73150;SDS011;61354;50.758;6.106;2024-01-07T08:29:52;11.73;;;6.93;;
73150;SDS011;61354;50.758;6.106;2024-01-07T08:32:37;11.25;;;6.28;;
73150;SDS011;61354;50.758;6.106;2024-01-07T08:35:21;12.50;;;6.72;;
73150;SDS011;61354;50.758;6.106;2024-01-07T08:38:05;11.88;;;6.10;;
73150;SDS011;61354;50.758;6.106;2024-01-07T08:40:49;11.85;;;6.63;;
73150;SDS011;61354;50.758;6.106;2024-01-07T08:43:33;13.43;;;6.43;;
73150;SDS011;61354;50.758;6.106;2024-01-07T08:46:19;13.93;;;7.30;;
73150;SDS011;61354;50.758;6.106;2024-01-07T08:49:04;11.23;;;7.05;;
73150;SDS011;61354;50.758;6.106;2024-01-07T08:51:48;11.68;;;6.50;;
73150;SDS011;61354;50.758;6.106;2024-01-07T08:54:32;11.68;;;5.63;;
73150;SDS011;61354;50.758;6.106;2024-01-07T08:57:17;10.57;;;5.68;;
73150;SDS011;61354;50.758;6.106;2024-01-07T09:00:01;12.27;;;6.93;;
73150;SDS011;61354;50.758;6.106;2024-01-07T09:02:45;9.77;;;5.90;;
73150;SDS011;61354;50.758;6.106;2024-01-07T09:05:29;9.60;;;5.85;;
73150;SDS011;61354;50.758;6.106;2024-01-07T09:08:13;12.85;;;6.32;;
73150;SDS011;61354;50.758;6.106;2024-01-07T09:10:58;10.65;;;5.82;;
73150;SDS011;61354;50.758;6.106;2024-01-07T09:13:43;11.10;;;6.43;;
73150;SDS011;61354;50.758;6.106;2024-01-07T09:16:28;11.27;;;6.43;;
73150;SDS011;61354;50.758;6.106;2024-01-07T09:19:12;13.43;;;6.95;;
73150;SDS011;61354;50.758;6.106;2024-01-07T09:21:56;11.80;;;6.60;;
73150;SDS011;61354;50.758;6.106;2024-01-07T09:24:40;12.32;;;5.80;;
73150;SDS011;61354;50.758;6.106;2024-01-07T09:27:24;10.45;;;5.78;;
73150;SDS011;61354;50.758;6.106;2024-01-07T09:30:08;11.32;;;6.18;;
73150;SDS011;61354;50.758;6.106;2024-01-07T09:32:54;9.18;;;6.32;;
73150;SDS011;61354;50.758;6.106;2024-01-07T09:35:38;12.15;;;6.60;;
73150;SDS011;61354;50.758;6.106;2024-01-07T09:38:22;14.35;;;7.43;;
73150;SDS011;61354;50.758;6.106;2024-01-07T09:41:08;12.90;;;6.35;;
73150;SDS011;61354;50.758;6.106;2024-01-07T09:43:53;12.57;;;7.22;;
73150;SDS011;61354;50.758;6.106;2024-01-07T09:46:37;15.27;;;7.82;;
73150;SDS011;61354;50.758;6.106;2024-01-07T09:49:23;12.10;;;7.03;;
73150;SDS011;61354;50.758;6.106;2024-01-07T09:52:08;14.05;;;6.90;;
73150;SDS011;61354;50.758;6.106;2024-01-07T09:57:41;13.10;;;7.30;;
73150;SDS011;61354;50.758;6.106;2024-01-07T10:00:28;12.52;;;7.60;;
73150;SDS011;61354;50.758;6.106;2024-01-07T10:03:13;12.73;;;7.45;;
73150;SDS011;61354;50.758;6.106;2024-01-07T10:05:57;14.88;;;7.78;;
73150;SDS011;61354;50.758;6.106;2024-01-07T10:08:44;15.40;;;7.47;;
73150;SDS011;61354;50.758;6.106;2024-01-07T10:11:28;14.48;;;8.77;;
73150;SDS011;61354;50.758;6.106;2024-01-07T10:14:12;14.65;;;7.65;;
73150;SDS011;61354;50.758;6.106;2024-01-07T10:16:57;14.80;;;7.28;;
73150;SDS011;61354;50.758;6.106;2024-01-07T10:19:45;11.68;;;6.65;;
73150;SDS011;61354;50.758;6.106;2024-01-07T10:22:32;10.45;;;7.10;;
73150;SDS011;61354;50.758;6.106;2024-01-07T10:25:16;12.13;;;6.65;;
73150;SDS011;61354;50.758;6.106;2024-01-07T10:28:00;13.07;;;7.32;;
73150;SDS011;61354;50.758;6.106;2024-01-07T10:30:54;13.50;;;7.20;;
73150;SDS011;61354;50.758;6.106;2024-01-07T10:33:38;13.93;;;6.75;;
73150;SDS011;61354;50.758;6.106;2024-01-07T10:36:24;12.13;;;5.82;;
73150;SDS011;61354;50.758;6.106;2024-01-07T10:39:09;15.27;;;8.00;;
73150;SDS011;61354;50.758;6.106;2024-01-07T10:41:54;12.68;;;6.60;;
73150;SDS011;61354;50.758;6.106;2024-01-07T10:44:41;16.65;;;7.38;;
73150;SDS011;61354;50.758;6.106;2024-01-07T10:47:27;14.05;;;7.75;;
73150;SDS011;61354;50.758;6.106;2024-01-07T10:50:14;16.55;;;8.13;;
73150;SDS011;61354;50.758;6.106;2024-01-07T10:53:04;16.33;;;8.68;;
73150;SDS011;61354;50.758;6.106;2024-01-07T10:56:00;16.48;;;7.85;;
73150;SDS011;61354;50.758;6.106;2024-01-07T10:58:47;12.55;;;6.53;;
73150;SDS011;61354;50.758;6.106;2024-01-07T11:01:32;11.98;;;6.53;;
73150;SDS011;61354;50.758;6.106;2024-01-07T11:07:29;10.07;;;6.07;;
73150;SDS011;61354;50.758;6.106;2024-01-07T11:10:22;10.52;;;5.75;;
73150;SDS011;61354;50.758;6.106;2024-01-07T11:13:29;9.93;;;5.35;;
73150;SDS011;61354;50.758;6.106;2024-01-07T11:16:40;12.50;;;6.82;;
73150;SDS011;61354;50.758;6.106;2024-01-07T11:19:22;11.07;;;6.70;;
73150;SDS011;61354;50.758;6.106;2024-01-07T11:22:26;10.05;;;5.55;;
73150;SDS011;61354;50.758;6.106;2024-01-07T11:25:32;11.57;;;5.57;;
73150;SDS011;61354;50.758;6.106;2024-01-07T11:31:01;12.15;;;6.43;;
73150;SDS011;61354;50.758;6.106;2024-01-07T11:33:46;12.68;;;6.68;;
73150;SDS011;61354;50.758;6.106;2024-01-07T11:39:18;7.88;;;5.00;;
73150;SDS011;61354;50.758;6.106;2024-01-07T11:42:03;11.10;;;6.70;;
73150;SDS011;61354;50.758;6.106;2024-01-07T11:44:47;11.95;;;6.30;;
73150;SDS011;61354;50.758;6.106;2024-01-07T11:47:32;10.55;;;6.22;;
73150;SDS011;61354;50.758;6.106;2024-01-07T11:50:16;11.80;;;6.80;;
73150;SDS011;61354;50.758;6.106;2024-01-07T11:53:00;11.63;;;6.53;;
73150;SDS011;61354;50.758;6.106;2024-01-07T11:55:44;9.30;;;6.43;;
73150;SDS011;61354;50.758;6.106;2024-01-07T11:58:28;12.48;;;6.63;;
73150;SDS011;61354;50.758;6.106;2024-01-07T12:01:14;11.52;;;5.43;;
73150;SDS011;61354;50.758;6.106;2024-01-07T12:03:59;8.85;;;5.00;;
73150;SDS011;61354;50.758;6.106;2024-01-07T12:06:43;11.05;;;6.03;;
73150;SDS011;61354;50.758;6.106;2024-01-07T12:09:27;11.68;;;6.38;;
73150;SDS011;61354;50.758;6.106;2024-01-07T12:12:11;13.18;;;5.95;;
73150;SDS011;61354;50.758;6.106;2024-01-07T12:14:55;10.55;;;6.22;;
73150;SDS011;61354;50.758;6.106;2024-01-07T12:17:40;13.70;;;7.40;;
73150;SDS011;61354;50.758;6.106;2024-01-07T12:20:25;11.52;;;6.50;;
73150;SDS011;61354;50.758;6.106;2024-01-07T12:23:10;11.50;;;6.07;;
73150;SDS011;61354;50.758;6.106;2024-01-07T12:25:56;13.65;;;6.78;;
73150;SDS011;61354;50.758;6.106;2024-01-07T12:28:55;12.77;;;7.13;;
73150;SDS011;61354;50.758;6.106;2024-01-07T12:34:30;22.40;;;10.02;;
73150;SDS011;61354;50.758;6.106;2024-01-07T12:37:14;16.20;;;8.90;;
73150;SDS011;61354;50.758;6.106;2024-01-07T12:39:58;12.63;;;6.72;;
73150;SDS011;61354;50.758;6.106;2024-01-07T12:42:42;11.82;;;6.97;;
73150;SDS011;61354;50.758;6.106;2024-01-07T12:45:29;12.48;;;6.25;;
73150;SDS011;61354;50.758;6.106;2024-01-07T12:48:13;12.20;;;6.97;;
73150;SDS011;61354;50.758;6.106;2024-01-07T12:50:57;13.95;;;8.23;;
73150;SDS011;61354;50.758;6.106;2024-01-07T12:53:41;12.40;;;5.82;;
73150;SDS011;61354;50.758;6.106;2024-01-07T12:56:25;11.30;;;6.82;;
73150;SDS011;61354;50.758;6.106;2024-01-07T12:59:09;10.68;;;5.50;;
73150;SDS011;61354;50.758;6.106;2024-01-07T13:01:53;12.65;;;7.07;;
73150;SDS011;61354;50.758;6.106;2024-01-07T13:04:37;10.93;;;6.50;;
73150;SDS011;61354;50.758;6.106;2024-01-07T13:07:22;9.10;;;5.72;;
73150;SDS011;61354;50.758;6.106;2024-01-07T13:10:07;11.55;;;6.60;;
73150;SDS011;61354;50.758;6.106;2024-01-07T13:12:52;10.93;;;7.07;;
73150;SDS011;61354;50.758;6.106;2024-01-07T13:15:36;10.50;;;5.97;;
73150;SDS011;61354;50.758;6.106;2024-01-07T13:18:20;11.68;;;5.65;;
73150;SDS011;61354;50.758;6.106;2024-01-07T13:21:04;10.50;;;5.68;;
73150;SDS011;61354;50.758;6.106;2024-01-07T13:23:50;9.30;;;5.20;;
73150;SDS011;61354;50.758;6.106;2024-01-07T13:26:34;12.10;;;6.15;;
73150;SDS011;61354;50.758;6.106;2024-01-07T13:29:18;10.63;;;6.60;;
73150;SDS011;61354;50.758;6.106;2024-01-07T13:32:02;10.60;;;5.93;;
73150;SDS011;61354;50.758;6.106;2024-01-07T13:34:46;9.45;;;6.05;;
73150;SDS011;61354;50.758;6.106;2024-01-07T13:37:31;10.98;;;6.35;;
73150;SDS011;61354;50.758;6.106;2024-01-07T13:40:14;11.32;;;7.00;;
73150;SDS011;61354;50.758;6.106;2024-01-07T13:42:59;10.70;;;5.95;;
73150;SDS011;61354;50.758;6.106;2024-01-07T13:45:43;12.30;;;7.10;;
73150;SDS011;61354;50.758;6.106;2024-01-07T13:48:26;12.75;;;6.38;;
73150;SDS011;61354;50.758;6.106;2024-01-07T13:51:10;13.75;;;5.60;;
73150;SDS011;61354;50.758;6.106;2024-01-07T13:53:54;14.70;;;7.38;;
73150;SDS011;61354;50.758;6.106;2024-01-07T13:56:38;19.48;;;8.43;;
73150;SDS011;61354;50.758;6.106;2024-01-07T13:59:25;11.75;;;7.22;;
73150;SDS011;61354;50.758;6.106;2024-01-07T14:02:09;12.25;;;6.90;;
73150;SDS011;61354;50.758;6.106;2024-01-07T14:04:53;12.13;;;6.50;;
73150;SDS011;61354;50.758;6.106;2024-01-07T14:07:38;8.35;;;4.97;;
73150;SDS011;61354;50.758;6.106;2024-01-07T14:10:22;11.02;;;5.70;;
73150;SDS011;61354;50.758;6.106;2024-01-07T14:13:06;11.52;;;6.50;;
73150;SDS011;61354;50.758;6.106;2024-01-07T14:15:50;9.40;;;6.03;;
73150;SDS011;61354;50.758;6.106;2024-01-07T14:18:34;10.98;;;6.22;;
73150;SDS011;61354;50.758;6.106;2024-01-07T14:21:20;10.38;;;5.55;;
73150;SDS011;61354;50.758;6.106;2024-01-07T14:24:05;8.68;;;5.57;;
73150;SDS011;61354;50.758;6.106;2024-01-07T14:26:49;9.68;;;6.10;;
73150;SDS011;61354;50.758;6.106;2024-01-07T14:29:33;10.23;;;5.57;;
73150;SDS011;61354;50.758;6.106;2024-01-07T14:32:17;9.20;;;4.95;;
73150;SDS011;61354;50.758;6.106;2024-01-07T14:35:01;11.27;;;6.00;;
73150;SDS011;61354;50.758;6.106;2024-01-07T14:37:45;8.63;;;4.82;;
73150;SDS011;61354;50.758;6.106;2024-01-07T14:40:29;10.57;;;5.07;;
73150;SDS011;61354;50.758;6.106;2024-01-07T14:43:13;9.85;;;6.00;;
73150;SDS011;61354;50.758;6.106;2024-01-07T14:45:57;9.35;;;5.38;;
73150;SDS011;61354;50.758;6.106;2024-01-07T14:48:41;7.22;;;4.72;;
73150;SDS011;61354;50.758;6.106;2024-01-07T14:51:25;8.68;;;5.38;;
73150;SDS011;61354;50.758;6.106;2024-01-07T14:54:09;7.78;;;4.40;;
73150;SDS011;61354;50.758;6.106;2024-01-07T14:56:53;8.70;;;4.50;;
73150;SDS011;61354;50.758;6.106;2024-01-07T14:59:38;6.05;;;4.00;;
73150;SDS011;61354;50.758;6.106;2024-01-07T15:02:22;8.82;;;4.03;;
73150;SDS011;61354;50.758;6.106;2024-01-07T15:05:06;9.32;;;4.32;;
73150;SDS011;61354;50.758;6.106;2024-01-07T15:07:50;5.70;;;3.20;;
73150;SDS011;61354;50.758;6.106;2024-01-07T15:10:35;8.10;;;3.90;;
73150;SDS011;61354;50.758;6.106;2024-01-07T15:13:19;6.22;;;4.03;;
73150;SDS011;61354;50.758;6.106;2024-01-07T15:16:03;6.32;;;3.78;;
73150;SDS011;61354;50.758;6.106;2024-01-07T15:18:48;8.15;;;3.97;;
73150;SDS011;61354;50.758;6.106;2024-01-07T15:21:32;6.35;;;3.92;;
73150;SDS011;61354;50.758;6.106;2024-01-07T15:24:16;6.65;;;3.13;;
73150;SDS011;61354;50.758;6.106;2024-01-07T15:26:59;6.53;;;3.30;;
73150;SDS011;61354;50.758;6.106;2024-01-07T15:29:43;5.05;;;3.10;;
73150;SDS011;61354;50.758;6.106;2024-01-07T15:32:28;6.05;;;3.17;;
73150;SDS011;61354;50.758;6.106;2024-01-07T15:35:12;6.03;;;3.70;;
73150;SDS011;61354;50.758;6.106;2024-01-07T15:37:56;6.40;;;2.97;;
73150;SDS011;61354;50.758;6.106;2024-01-07T15:40:41;4.47;;;2.88;;
73150;SDS011;61354;50.758;6.106;2024-01-07T15:43:25;5.28;;;3.65;;
73150;SDS011;61354;50.758;6.106;2024-01-07T15:46:09;5.45;;;2.95;;
73150;SDS011;61354;50.758;6.106;2024-01-07T15:48:53;5.20;;;2.72;;
73150;SDS011;61354;50.758;6.106;2024-01-07T15:51:37;6.75;;;3.70;;
73150;SDS011;61354;50.758;6.106;2024-01-07T15:54:21;3.75;;;2.33;;
73150;SDS011;61354;50.758;6.106;2024-01-07T15:57:05;6.18;;;2.53;;
73150;SDS011;61354;50.758;6.106;2024-01-07T15:59:50;4.72;;;2.60;;
73150;SDS011;61354;50.758;6.106;2024-01-07T16:02:33;5.78;;;3.42;;
73150;SDS011;61354;50.758;6.106;2024-01-07T16:05:17;4.57;;;3.20;;
73150;SDS011;61354;50.758;6.106;2024-01-07T16:08:02;6.45;;;2.83;;
73150;SDS011;61354;50.758;6.106;2024-01-07T16:10:47;4.20;;;2.30;;
73150;SDS011;61354;50.758;6.106;2024-01-07T16:13:31;6.72;;;2.72;;
73150;SDS011;61354;50.758;6.106;2024-01-07T16:16:15;6.32;;;2.83;;
73150;SDS011;61354;50.758;6.106;2024-01-07T16:18:59;4.28;;;2.50;;
73150;SDS011;61354;50.758;6.106;2024-01-07T16:21:43;4.90;;;2.50;;
73150;SDS011;61354;50.758;6.106;2024-01-07T16:24:27;6.05;;;3.00;;
73150;SDS011;61354;50.758;6.106;2024-01-07T16:27:10;5.28;;;2.97;;
73150;SDS011;61354;50.758;6.106;2024-01-07T16:29:56;5.10;;;2.50;;
73150;SDS011;61354;50.758;6.106;2024-01-07T16:32:40;4.32;;;2.85;;
73150;SDS011;61354;50.758;6.106;2024-01-07T16:35:24;4.55;;;2.50;;
73150;SDS011;61354;50.758;6.106;2024-01-07T16:38:08;4.43;;;2.58;;